createdAt,value
2022-11-17T00:00:42.462Z,15.60
2022-11-17T00:03:45.575Z,16.33
2022-11-17T00:06:49.143Z,17.00
2022-11-17T00:09:52.108Z,15.80
2022-11-17T00:13:14.080Z,19.10
2022-11-17T00:16:19.266Z,17.30
2022-11-17T00:19:39.952Z,16.63
2022-11-17T00:22:43.174Z,16.27
2022-11-17T00:25:46.142Z,18.60
2022-11-17T00:28:53.858Z,15.10
2022-11-17T00:32:14.519Z,21.90
2022-11-17T00:35:17.732Z,14.87
2022-11-17T00:38:23.653Z,14.33
2022-11-17T00:41:26.647Z,15.87
2022-11-17T00:44:31.609Z,18.40
2022-11-17T00:47:36.984Z,16.30
2022-11-17T00:50:40.128Z,16.40
2022-11-17T00:53:43.070Z,15.73
2022-11-17T00:56:46.206Z,16.57
2022-11-17T00:59:50.485Z,16.63
2022-11-17T01:02:55.283Z,15.53
2022-11-17T01:06:05.770Z,17.50
2022-11-17T01:09:13.336Z,15.50
2022-11-17T01:12:16.259Z,16.50
2022-11-17T01:15:21.093Z,14.63
2022-11-17T01:18:24.262Z,14.73
2022-11-17T01:21:29.373Z,17.63
2022-11-17T01:24:32.320Z,15.37
2022-11-17T01:27:35.290Z,18.57
2022-11-17T01:30:39.965Z,14.17
2022-11-17T01:33:43.733Z,14.20
2022-11-17T01:37:04.345Z,15.17
2022-11-17T01:40:10.489Z,15.90
2022-11-17T01:43:13.415Z,17.90
2022-11-17T01:46:33.385Z,16.13
2022-11-17T01:49:36.339Z,15.17
2022-11-17T01:52:41.007Z,15.47
2022-11-17T01:55:47.909Z,15.80
2022-11-17T01:58:57.432Z,15.57
2022-11-17T02:02:01.958Z,18.30
2022-11-17T02:05:17.797Z,14.93
2022-11-17T02:08:23.867Z,15.07
2022-11-17T02:11:28.071Z,16.03
2022-11-17T02:14:31.506Z,14.63
2022-11-17T02:17:38.877Z,15.10
2022-11-17T02:20:55.925Z,15.17
2022-11-17T02:24:34.587Z,14.80
2022-11-17T02:27:58.249Z,16.27
2022-11-17T02:31:14.410Z,14.23
2022-11-17T02:34:47.689Z,17.07
2022-11-17T02:38:05.558Z,19.57
2022-11-17T02:41:13.692Z,16.30
2022-11-17T02:44:27.438Z,14.70
2022-11-17T02:47:34.230Z,16.07
2022-11-17T02:50:39.154Z,17.53
2022-11-17T02:53:42.650Z,15.33
2022-11-17T02:56:45.640Z,14.97
2022-11-17T02:59:50.930Z,15.37
2022-11-17T03:03:26.893Z,17.53
2022-11-17T03:06:40.534Z,15.63
2022-11-17T03:09:51.120Z,15.63
2022-11-17T03:13:01.218Z,17.73
2022-11-17T03:16:16.278Z,15.70
2022-11-17T03:19:26.210Z,20.33
2022-11-17T03:22:37.776Z,14.07
2022-11-17T03:25:44.306Z,17.40
2022-11-17T03:28:47.963Z,17.17
2022-11-17T03:31:59.076Z,16.67
2022-11-17T03:35:08.592Z,15.27
2022-11-17T03:38:15.364Z,15.10
2022-11-17T03:41:20.662Z,17.43
2022-11-17T03:44:25.857Z,14.83
2022-11-17T03:47:34.532Z,15.93
2022-11-17T03:50:41.940Z,16.37
2022-11-17T03:53:46.288Z,15.83
2022-11-17T03:56:55.458Z,14.97
2022-11-17T04:00:03.213Z,14.87
2022-11-17T04:03:16.941Z,16.30
2022-11-17T04:06:19.954Z,15.87
2022-11-17T04:09:24.617Z,14.30
2022-11-17T04:12:45.903Z,17.37
2022-11-17T04:15:58.970Z,16.00
2022-11-17T04:19:06.006Z,17.43
2022-11-17T04:22:09.354Z,16.17
2022-11-17T04:25:33.221Z,15.13
2022-11-17T04:28:38.728Z,18.60
2022-11-17T04:31:41.702Z,17.33
2022-11-17T04:34:45.981Z,15.63
2022-11-17T04:37:48.932Z,17.33
2022-11-17T04:41:05.984Z,18.57
2022-11-17T04:44:11.302Z,16.50
2022-11-17T04:47:14.980Z,17.53
2022-11-17T04:50:19.297Z,15.70
2022-11-17T04:53:22.585Z,17.13
2022-11-17T04:56:26.471Z,17.67
2022-11-17T04:59:31.604Z,16.17
2022-11-17T05:02:34.563Z,17.10
2022-11-17T05:05:38.881Z,18.30
2022-11-17T05:08:42.371Z,17.63
2022-11-17T05:12:02.918Z,17.43
2022-11-17T05:15:07.810Z,18.87
2022-11-17T05:18:09.834Z,21.87
2022-11-17T05:21:14.089Z,34.67
2022-11-17T05:24:17.105Z,20.20
2022-11-17T05:27:20.359Z,20.87
2022-11-17T05:30:23.313Z,21.77
2022-11-17T05:33:26.647Z,19.77
2022-11-17T05:36:31.457Z,22.93
2022-11-17T05:39:34.405Z,28.00
2022-11-17T05:42:37.348Z,21.07
2022-11-17T05:45:40.348Z,25.73
2022-11-17T05:48:43.370Z,22.33
2022-11-17T05:51:52.498Z,19.30
2022-11-17T05:54:55.987Z,24.53
2022-11-17T05:58:07.831Z,19.07
2022-11-17T06:01:12.760Z,19.40
2022-11-17T06:04:20.631Z,18.70
2022-11-17T06:07:25.008Z,18.33
2022-11-17T06:10:31.628Z,21.33
2022-11-17T06:13:36.641Z,18.30
2022-11-17T06:16:44.983Z,18.73
2022-11-17T06:19:54.250Z,18.97
2022-11-17T06:23:02.288Z,20.17
2022-11-17T06:26:08.549Z,19.23
2022-11-17T06:29:12.671Z,18.07
2022-11-17T06:32:17.346Z,20.70
2022-11-17T06:35:20.665Z,17.87
2022-11-17T06:38:25.179Z,19.33
2022-11-17T06:41:28.392Z,21.10
2022-11-17T06:44:31.320Z,20.90
2022-11-17T06:47:34.253Z,20.70
2022-11-17T06:50:37.255Z,20.20
2022-11-17T06:53:41.850Z,26.53
2022-11-17T06:56:45.099Z,20.00
2022-11-17T06:59:48.126Z,19.20
2022-11-17T07:02:51.085Z,21.10
2022-11-17T07:05:54.012Z,20.40
2022-11-17T07:08:58.264Z,18.50
2022-11-17T07:12:01.221Z,25.97
2022-11-17T07:15:04.581Z,17.77
2022-11-17T07:18:07.493Z,18.57
2022-11-17T07:21:12.273Z,19.50
2022-11-17T07:24:16.677Z,20.00
2022-11-17T07:27:19.612Z,16.27
2022-11-17T07:30:22.566Z,20.00
2022-11-17T07:33:26.012Z,17.33
2022-11-17T07:36:29.027Z,17.17
2022-11-17T07:39:33.256Z,17.43
2022-11-17T07:42:36.311Z,18.40
2022-11-17T07:45:44.474Z,14.40
2022-11-17T07:48:51.312Z,19.03
2022-11-17T07:52:01.254Z,16.93
2022-11-17T07:55:08.930Z,15.33
2022-11-17T07:58:18.023Z,18.57
2022-11-17T08:01:27.900Z,19.80
2022-11-17T08:04:44.005Z,20.03
2022-11-17T08:11:20.430Z,23.77
2022-11-17T08:14:23.862Z,15.13
2022-11-17T08:17:32.743Z,14.77
2022-11-17T08:20:39.952Z,16.50
2022-11-17T08:23:43.135Z,18.03
2022-11-17T08:26:47.655Z,14.40
2022-11-17T08:29:50.590Z,16.60
2022-11-17T08:32:54.929Z,15.47
2022-11-17T08:35:58.945Z,15.20
2022-11-17T08:39:02.536Z,16.23
2022-11-17T08:42:06.901Z,17.37
2022-11-17T08:45:11.516Z,18.17
2022-11-17T08:48:14.466Z,18.33
2022-11-17T08:51:17.471Z,18.80
2022-11-17T08:54:20.426Z,15.63
2022-11-17T08:57:25.096Z,15.93
2022-11-17T09:00:28.136Z,18.43
2022-11-17T09:03:31.065Z,16.20
2022-11-17T09:06:33.983Z,19.43
2022-11-17T09:09:37.000Z,20.03
2022-11-17T09:12:41.352Z,20.93
2022-11-17T09:15:44.357Z,19.83
2022-11-17T09:18:47.510Z,18.87
2022-11-17T09:21:50.570Z,22.17
2022-11-17T09:24:53.665Z,21.63
2022-11-17T09:27:58.291Z,22.07
2022-11-17T09:31:06.849Z,19.13
2022-11-17T09:34:09.886Z,18.10
2022-11-17T09:37:13.183Z,20.57
2022-11-17T09:40:20.957Z,22.40
2022-11-17T09:43:30.050Z,19.97
2022-11-17T09:46:52.958Z,21.43
2022-11-17T09:50:00.589Z,21.00
2022-11-17T09:53:13.725Z,20.73
2022-11-17T09:56:17.976Z,19.63
2022-11-17T09:59:24.914Z,20.93
2022-11-17T10:02:28.011Z,20.60
2022-11-17T10:05:34.572Z,23.20
2022-11-17T10:08:44.019Z,20.10
2022-11-17T10:11:48.279Z,20.80
2022-11-17T10:14:53.086Z,17.30
2022-11-17T10:17:56.460Z,24.20
2022-11-17T10:20:59.632Z,24.03
2022-11-17T10:24:02.610Z,19.63
2022-11-17T10:27:09.527Z,21.07
2022-11-17T10:30:24.350Z,23.00
2022-11-17T10:33:39.491Z,19.93
2022-11-17T10:36:49.635Z,21.33
2022-11-17T10:40:13.736Z,18.40
2022-11-17T10:43:26.815Z,19.77
2022-11-17T10:46:39.375Z,18.67
2022-11-17T10:49:44.969Z,22.13
2022-11-17T10:52:49.238Z,20.90
2022-11-17T10:55:59.246Z,21.13
2022-11-17T10:59:13.869Z,18.70
2022-11-17T11:02:30.130Z,19.47
2022-11-17T11:05:33.143Z,17.00
2022-11-17T11:08:48.303Z,17.83
2022-11-17T11:11:54.248Z,20.30
2022-11-17T11:15:00.979Z,25.00
2022-11-17T11:18:12.656Z,18.00
2022-11-17T11:21:25.821Z,16.47
2022-11-17T11:24:38.279Z,16.63
2022-11-17T11:27:55.757Z,20.20
2022-11-17T11:31:07.134Z,14.63
2022-11-17T11:34:35.692Z,19.37
2022-11-17T11:37:48.047Z,15.83
2022-11-17T11:41:06.357Z,16.43
2022-11-17T11:44:33.500Z,17.00
2022-11-17T11:47:57.513Z,16.17
2022-11-17T11:51:06.490Z,15.80
2022-11-17T11:54:17.315Z,18.93
2022-11-17T11:57:26.099Z,15.07
2022-11-17T12:00:29.185Z,18.47
2022-11-17T12:03:36.680Z,18.73
2022-11-17T12:06:53.711Z,17.87
2022-11-17T12:10:03.855Z,15.80
2022-11-17T12:13:12.066Z,16.33
2022-11-17T12:16:19.260Z,20.60
2022-11-17T12:19:49.941Z,17.40
2022-11-17T12:23:14.885Z,17.57
2022-11-17T12:26:25.750Z,19.00
2022-11-17T12:29:32.398Z,14.67
2022-11-17T12:32:55.348Z,18.47
2022-11-17T12:36:30.813Z,13.83
2022-11-17T12:40:05.342Z,16.83
2022-11-17T12:43:23.802Z,16.47
2022-11-17T12:46:30.266Z,15.67
2022-11-17T12:49:48.340Z,16.87
2022-11-17T12:53:32.579Z,16.40
2022-11-17T12:56:48.814Z,16.90
2022-11-17T13:00:10.031Z,17.13
2022-11-17T13:03:17.788Z,16.07
2022-11-17T13:06:34.782Z,16.70
2022-11-17T13:09:38.678Z,14.03
2022-11-17T13:12:42.940Z,19.40
2022-11-17T13:15:50.294Z,16.83
2022-11-17T13:18:53.295Z,17.53
2022-11-17T13:22:00.976Z,13.60
2022-11-17T13:25:20.476Z,15.97
2022-11-17T13:28:30.229Z,14.63
2022-11-17T13:31:33.341Z,17.50
2022-11-17T13:34:36.618Z,16.83
2022-11-17T13:37:39.585Z,13.83
2022-11-17T13:40:44.295Z,17.67
2022-11-17T13:43:50.828Z,18.20
2022-11-17T13:46:53.812Z,15.83
2022-11-17T13:49:56.922Z,19.40
2022-11-17T13:53:03.367Z,16.93
2022-11-17T13:56:32.658Z,16.87
2022-11-17T13:59:39.675Z,19.27
2022-11-17T14:02:54.514Z,16.53
2022-11-17T14:05:58.029Z,16.97
2022-11-17T14:09:06.271Z,17.20
2022-11-17T14:12:10.609Z,16.37
2022-11-17T14:15:22.760Z,21.23
2022-11-17T14:18:37.490Z,15.37
2022-11-17T14:22:00.367Z,15.93
2022-11-17T14:25:05.942Z,16.30
2022-11-17T14:28:14.036Z,16.43
2022-11-17T14:31:19.470Z,16.73
2022-11-17T14:34:25.097Z,17.60
2022-11-17T14:37:30.398Z,15.60
2022-11-17T14:40:34.042Z,16.63
2022-11-17T14:43:37.084Z,14.53
2022-11-17T14:46:41.783Z,17.60
2022-11-17T14:49:45.725Z,16.87
2022-11-17T14:52:48.663Z,19.47
2022-11-17T14:55:51.649Z,20.50
2022-11-17T14:58:57.295Z,19.77
2022-11-17T15:02:01.558Z,27.57
2022-11-17T15:05:05.067Z,18.33
2022-11-17T15:08:10.300Z,18.20
2022-11-17T15:11:16.968Z,19.40
2022-11-17T15:14:20.115Z,18.70
2022-11-17T15:17:28.498Z,21.43
2022-11-17T15:20:31.647Z,19.30
2022-11-17T15:23:37.661Z,19.20
2022-11-17T15:26:40.727Z,19.80
2022-11-17T15:29:43.757Z,24.70
2022-11-17T15:32:48.086Z,20.30
2022-11-17T15:36:02.528Z,21.70
2022-11-17T15:39:06.309Z,23.10
2022-11-17T15:42:09.226Z,19.13
2022-11-17T15:45:12.403Z,18.90
2022-11-17T15:48:18.844Z,20.43
2022-11-17T15:51:24.670Z,22.93
2022-11-17T15:54:28.594Z,20.90
2022-11-17T15:57:31.521Z,21.40
2022-11-17T16:00:34.935Z,22.60
2022-11-17T16:03:39.580Z,22.37
2022-11-17T16:06:45.354Z,24.10
2022-11-17T16:09:50.626Z,21.60
2022-11-17T16:12:53.641Z,21.00
2022-11-17T16:15:56.942Z,23.00
2022-11-17T16:19:01.348Z,22.63
2022-11-17T16:22:04.376Z,22.53
2022-11-17T16:25:10.348Z,22.83
2022-11-17T16:28:13.788Z,20.90
2022-11-17T16:31:19.661Z,21.00
2022-11-17T16:34:24.393Z,21.40
2022-11-17T16:37:27.371Z,21.93
2022-11-17T16:40:31.060Z,22.37
2022-11-17T16:43:34.442Z,21.90
2022-11-17T16:46:44.811Z,21.70
2022-11-17T16:49:51.592Z,22.70
2022-11-17T16:52:54.858Z,22.17
2022-11-17T16:56:03.919Z,22.67
2022-11-17T16:59:07.346Z,22.17
2022-11-17T17:02:12.482Z,23.53
2022-11-17T17:05:16.896Z,23.83
2022-11-17T17:08:20.118Z,22.43
2022-11-17T17:11:23.796Z,23.73
2022-11-17T17:14:26.896Z,23.50
2022-11-17T17:17:29.872Z,23.57
2022-11-17T17:20:34.323Z,21.87
2022-11-17T17:23:37.257Z,24.20
2022-11-17T17:26:41.045Z,24.33
2022-11-17T17:29:44.380Z,22.17
2022-11-17T17:32:47.366Z,24.53
2022-11-17T17:35:52.053Z,22.83
2022-11-17T17:38:56.534Z,23.00
2022-11-17T17:41:59.979Z,24.20
2022-11-17T17:45:02.942Z,25.67
2022-11-17T17:48:07.555Z,25.47
2022-11-17T17:51:14.760Z,26.23
2022-11-17T17:54:20.667Z,26.30
2022-11-17T17:57:27.598Z,31.23
2022-11-17T18:00:35.034Z,24.60
2022-11-17T18:03:39.636Z,26.30
2022-11-17T18:06:47.337Z,31.03
2022-11-17T18:09:50.402Z,29.47
2022-11-17T18:12:53.442Z,28.53
2022-11-17T18:15:56.828Z,28.17
2022-11-17T18:19:01.871Z,29.50
2022-11-17T18:22:06.295Z,31.63
2022-11-17T18:25:13.804Z,29.13
2022-11-17T18:28:20.859Z,29.93
2022-11-17T18:31:26.390Z,28.90
2022-11-17T18:34:29.336Z,29.60
2022-11-17T18:37:39.331Z,31.70
2022-11-17T18:40:42.497Z,29.40
2022-11-17T18:43:45.686Z,30.80
2022-11-17T18:46:48.989Z,29.13
2022-11-17T18:49:52.003Z,26.90
2022-11-17T18:52:56.466Z,30.33
2022-11-17T18:56:02.120Z,28.33
2022-11-17T18:59:11.186Z,27.77
2022-11-17T19:02:14.375Z,33.03
2022-11-17T19:05:17.734Z,29.67
2022-11-17T19:08:22.768Z,26.53
2022-11-17T19:11:26.349Z,30.03
2022-11-17T19:14:29.533Z,29.83
2022-11-17T19:17:32.623Z,30.40
2022-11-17T19:20:35.593Z,28.90
2022-11-17T19:23:42.596Z,29.23
2022-11-17T19:26:47.343Z,27.37
2022-11-17T19:29:50.611Z,30.23
2022-11-17T19:32:57.472Z,31.90
2022-11-17T19:36:05.000Z,29.87
2022-11-17T19:39:09.413Z,29.93
2022-11-17T19:42:12.920Z,30.63
2022-11-17T19:45:16.186Z,30.67
2022-11-17T19:48:19.133Z,36.30
2022-11-17T19:51:24.508Z,36.80
2022-11-17T19:54:29.442Z,37.03
2022-11-17T19:57:32.564Z,37.53
2022-11-17T20:00:35.751Z,34.20
2022-11-17T20:03:39.877Z,34.70
2022-11-17T20:06:43.015Z,35.27
2022-11-17T20:09:47.563Z,33.83
2022-11-17T20:12:50.617Z,36.47
2022-11-17T20:16:01.314Z,37.73
2022-11-17T20:19:04.498Z,34.97
2022-11-17T20:22:07.492Z,34.93
2022-11-17T20:25:12.199Z,36.73
2022-11-17T20:28:15.803Z,35.10
2022-11-17T20:31:21.284Z,37.17
2022-11-17T20:34:27.224Z,33.60
2022-11-17T20:37:30.512Z,36.03
2022-11-17T20:40:34.813Z,35.03
2022-11-17T20:43:38.216Z,31.57
2022-11-17T20:46:41.327Z,32.00
2022-11-17T20:49:44.459Z,32.80
2022-11-17T20:52:47.469Z,33.07
2022-11-17T20:55:52.302Z,34.20
2022-11-17T20:58:55.406Z,32.43
2022-11-17T21:01:58.350Z,31.87
2022-11-17T21:05:01.341Z,30.33
2022-11-17T21:08:04.529Z,32.70
2022-11-17T21:11:32.224Z,32.83
2022-11-17T21:14:35.341Z,33.80
2022-11-17T21:17:55.774Z,32.37
2022-11-17T21:20:59.788Z,34.17
2022-11-17T21:24:03.158Z,32.00
2022-11-17T21:27:07.463Z,36.07
2022-11-17T21:30:12.892Z,33.70
2022-11-17T21:33:15.856Z,35.37
2022-11-17T21:36:22.843Z,32.07
2022-11-17T21:39:25.762Z,34.17
2022-11-17T21:42:30.005Z,33.07
2022-11-17T21:45:34.476Z,33.50
2022-11-17T21:48:38.501Z,34.87
2022-11-17T21:51:41.649Z,36.00
2022-11-17T21:54:45.582Z,35.57
2022-11-17T21:57:52.667Z,35.27
2022-11-17T22:00:55.709Z,35.37
2022-11-17T22:03:59.175Z,32.27
2022-11-17T22:07:02.659Z,36.37
2022-11-17T22:10:07.036Z,33.20
2022-11-17T22:13:12.648Z,35.63
2022-11-17T22:16:15.991Z,34.93
2022-11-17T22:19:20.947Z,35.43
2022-11-17T22:22:24.009Z,33.37
2022-11-17T22:25:44.626Z,35.20
2022-11-17T22:28:54.119Z,31.63
2022-11-17T22:31:57.382Z,37.33
2022-11-17T22:35:01.688Z,37.23
2022-11-17T22:38:04.666Z,35.17
2022-11-17T22:41:09.883Z,37.23
2022-11-17T22:44:15.780Z,34.83
2022-11-17T22:47:18.812Z,32.63
2022-11-17T22:50:21.890Z,36.27
2022-11-17T22:53:25.516Z,36.70
2022-11-17T22:56:28.555Z,37.43
2022-11-17T22:59:33.189Z,38.37
2022-11-17T23:02:36.107Z,40.10
2022-11-17T23:05:39.178Z,35.77
2022-11-17T23:08:42.093Z,39.13
2022-11-17T23:11:45.051Z,42.33
2022-11-17T23:14:49.310Z,40.83
2022-11-17T23:17:52.266Z,40.50
2022-11-17T23:20:55.248Z,34.53
2022-11-17T23:23:58.174Z,40.13
2022-11-17T23:27:01.106Z,36.90
2022-11-17T23:30:06.710Z,40.30
2022-11-17T23:33:09.689Z,42.90
2022-11-17T23:36:16.435Z,39.90
2022-11-17T23:39:19.682Z,42.10
2022-11-17T23:42:22.771Z,39.33
2022-11-17T23:45:27.129Z,40.83
2022-11-17T23:48:32.146Z,46.33
2022-11-17T23:51:38.515Z,38.10
2022-11-17T23:54:41.440Z,42.07
2022-11-17T23:57:44.525Z,44.00
